Ventura — ZCDT2 — position and weather

sailwx.info

Track history (hours):
 
Tides and Currents Weather Stations Pressure Air Temp Water Temp Dewpoint Dewpoint Depression Visibility Wind Speed Wind Dir Waves Ship Positions

Ventura

Last reported at 2016-Dec-02 16:30 UTC. Time now 2016-Dec-02 18:05 UTC.
Position N 49°05' W 004°25'.

Length 288 m; draft 8.6 m.

Type: Passenger vessel. MMSI: 310562000.

Date/timePositionNaut miles runAvg speedWind from/ knotsBaromVisibWave heightAir tempDewpointWater temp
2016-Dec-02 16:30N 49°05' W 004°25'1515.2
2016-Dec-02 15:31N 48°56' W 004°43'1414.9
2016-Dec-02 14:33N 48°47' W 005°00'1514.6
2016-Dec-02 13:33N 48°37' W 005°16'1514.7
2016-Dec-02 12:33N 48°26' W 005°30'1414.5
2016-Dec-02 11:33N 48°13' W 005°41'1414.2
2016-Dec-02 10:33N 48°01' W 005°51'1413.9
2016-Dec-02 09:32N 47°48' W 006°01'1413.7
2016-Dec-02 08:33N 47°37' W 006°12'711.8
2016-Dec-02 08:00N 47°30' W 006°12'920.9 030 / 151021.710.8 10.8 4.613.5
2016-Dec-02 07:33N 47°24' W 006°22'1515.0
2016-Dec-02 06:33N 47°11' W 006°33'1615.5
2016-Dec-02 05:29N 46°57' W 006°45'1515.2
2016-Dec-02 04:29N 46°43' W 006°56'1415.4
2016-Dec-02 03:33N 46°31' W 007°07'1514.9
2016-Dec-02 02:33N 46°18' W 007°18'1615.5
2016-Dec-02 01:33N 46°04' W 007°29'26815.3
2016-Dec-01 08:00N 41°54' W 009°42'14917.4 120 / 251024.1 5.4 16.010.316.0
2016-Nov-30 23:27N 39°25' W 009°44'1516.9
2016-Nov-30 22:34N 39°10' W 009°44'1716.9
2016-Nov-30 21:33N 38°53' W 009°43'1716.5
2016-Nov-30 20:33N 38°37' W 009°39'1414.2
2016-Nov-30 19:33N 38°38' W 009°21'11 1.1
2016-Nov-30 09:31N 38°43' W 009°08'0 0.0
2016-Nov-30 08:34N 38°43' W 009°08'7 7.4
2016-Nov-30 07:34N 38°41' W 009°17'1312.8
2016-Nov-30 06:34N 38°30' W 009°25'1716.5
2016-Nov-30 05:34N 38°13' W 009°24'1716.6
2016-Nov-30 04:33N 37°57' W 009°24'1716.9
2016-Nov-30 03:33N 37°40' W 009°24'14114.8
2016-Nov-29 18:00N 36°12' W 007°06'7817.7 090 / 241019.510.8 19.012.818.9
2016-Nov-29 13:34N 35°59' W 005°30'10 1.3
2016-Nov-29 05:32N 36°06' W 005°21'57 4.9
2016-Nov-28 18:00N 36°30' W 004°18'53 3.2 330 / 81012.010.8 17.010.516.5
2016-Nov-28 01:16N 36°01' W 005°13'811.5
2016-Nov-28 00:33N 35°59' W 005°23'231 7.7
2016-Nov-26 18:27N 37°33' W 009°46'2915.2
2016-Nov-26 16:34N 38°01' W 009°54'1616.5
2016-Nov-26 15:34N 38°17' W 010°00'1717.0
2016-Nov-26 14:34N 38°33' W 010°05'1717.0
2016-Nov-26 13:34N 38°50' W 010°06'1616.4
2016-Nov-26 12:33N 39°07' W 010°07'1716.4
2016-Nov-26 11:33N 39°23' W 010°06'6714.7
2016-Nov-26 07:00N 40°30' W 010°06'51111.5 100 / 48998.610.8 14.310.917.0
2016-Nov-24 10:29N 48°23' W 005°33'1414.9
2016-Nov-24 09:33N 48°34' W 005°21'1514.9
2016-Nov-24 08:33N 48°44' W 005°05'1615.7
2016-Nov-24 07:33N 48°55' W 004°47'6515.8
2016-Nov-24 03:25N 49°38' W 003°32'1314.8
2016-Nov-24 02:33N 49°47' W 003°18'1514.7
2016-Nov-24 01:33N 49°56' W 003°01'1514.9
2016-Nov-24 00:33N 50°01' W 002°39'2116.0
2016-Nov-23 23:14N 50°10' W 002°09'1116.9
2016-Nov-23 22:33N 50°16' W 001°53'1716.5
2016-Nov-23 21:33N 50°24' W 001°30'1716.7
2016-Nov-23 20:33N 50°31' W 001°07'1212.4
2016-Nov-23 19:33N 50°43' W 000°59'1313.2
2016-Nov-23 18:33N 50°48' W 001°19'8 8.0
2016-Nov-23 17:33N 50°54' W 001°26'0 0.1
2016-Nov-23 16:32N 50°54' W 001°26'0 0.0
2016-Nov-23 15:32N 50°54' W 001°26'0 0.0
2016-Nov-23 14:32N 50°54' W 001°26'0 0.0
2016-Nov-23 13:32N 50°54' W 001°26'0 0.0
2016-Nov-23 12:32N 50°54' W 001°26'0 0.0
2016-Nov-23 11:32N 50°54' W 001°26'0 0.0
2016-Nov-23 10:32N 50°54' W 001°26'0 0.0
2016-Nov-23 09:32N 50°54' W 001°26'0 0.0
2016-Nov-23 08:32N 50°54' W 001°26'0 0.0
2016-Nov-23 07:32N 50°54' W 001°26'0 0.0
2016-Nov-23 06:32N 50°54' W 001°26'22 7.5
2016-Nov-23 03:34N 50°40' W 000°59'1313.3
2016-Nov-23 02:33N 50°30' W 001°13'3417.0
2016-Nov-23 00:32N 50°14' W 001°60'1616.4
2016-Nov-22 23:32N 50°01' W 002°16'1615.9
2016-Nov-22 22:32N 49°54' W 002°38'3417.2
2016-Nov-22 20:33N 49°35' W 003°22'5817.6
2016-Nov-22 17:15N 49°01' W 004°35'1318.7
2016-Nov-22 16:33N 48°53' W 004°50'  
Track history (hours):
 
Tides and Currents Weather Stations Pressure Air Temp Water Temp Dewpoint Dewpoint Depression Visibility Wind Speed Wind Dir Waves Ship Positions

Ventura

Last reported at 2016-Dec-02 16:30 UTC. Time now 2016-Dec-02 18:05 UTC.
Position N 49°05' W 004°25'.

Length 288 m; draft 8.6 m.

Type: Passenger vessel. MMSI: 310562000.

Date/timePositionNaut miles runAvg speedWind from/ knotsBaromVisibWave heightAir tempDewpointWater temp
2016-Dec-02 16:30N 49°05' W 004°25'1515.2
2016-Dec-02 15:31N 48°56' W 004°43'1414.9
2016-Dec-02 14:33N 48°47' W 005°00'1514.6
2016-Dec-02 13:33N 48°37' W 005°16'1514.7
2016-Dec-02 12:33N 48°26' W 005°30'1414.5
2016-Dec-02 11:33N 48°13' W 005°41'1414.2
2016-Dec-02 10:33N 48°01' W 005°51'1413.9
2016-Dec-02 09:32N 47°48' W 006°01'1413.7
2016-Dec-02 08:33N 47°37' W 006°12'711.8
2016-Dec-02 08:00N 47°30' W 006°12'920.9 030 / 151021.710.8 10.8 4.613.5
2016-Dec-02 07:33N 47°24' W 006°22'1515.0
2016-Dec-02 06:33N 47°11' W 006°33'1615.5
2016-Dec-02 05:29N 46°57' W 006°45'1515.2
2016-Dec-02 04:29N 46°43' W 006°56'1415.4
2016-Dec-02 03:33N 46°31' W 007°07'1514.9
2016-Dec-02 02:33N 46°18' W 007°18'1615.5
2016-Dec-02 01:33N 46°04' W 007°29'26815.3
2016-Dec-01 08:00N 41°54' W 009°42'14917.4 120 / 251024.1 5.4 16.010.316.0
2016-Nov-30 23:27N 39°25' W 009°44'1516.9
2016-Nov-30 22:34N 39°10' W 009°44'1716.9
2016-Nov-30 21:33N 38°53' W 009°43'1716.5
2016-Nov-30 20:33N 38°37' W 009°39'1414.2
2016-Nov-30 19:33N 38°38' W 009°21'11 1.1
2016-Nov-30 09:31N 38°43' W 009°08'0 0.0
2016-Nov-30 08:34N 38°43' W 009°08'7 7.4
2016-Nov-30 07:34N 38°41' W 009°17'1312.8
2016-Nov-30 06:34N 38°30' W 009°25'1716.5
2016-Nov-30 05:34N 38°13' W 009°24'1716.6
2016-Nov-30 04:33N 37°57' W 009°24'1716.9
2016-Nov-30 03:33N 37°40' W 009°24'14114.8
2016-Nov-29 18:00N 36°12' W 007°06'7817.7 090 / 241019.510.8 19.012.818.9
2016-Nov-29 13:34N 35°59' W 005°30'10 1.3
2016-Nov-29 05:32N 36°06' W 005°21'57 4.9
2016-Nov-28 18:00N 36°30' W 004°18'53 3.2 330 / 81012.010.8 17.010.516.5
2016-Nov-28 01:16N 36°01' W 005°13'811.5
2016-Nov-28 00:33N 35°59' W 005°23'231 7.7
2016-Nov-26 18:27N 37°33' W 009°46'2915.2
2016-Nov-26 16:34N 38°01' W 009°54'1616.5
2016-Nov-26 15:34N 38°17' W 010°00'1717.0
2016-Nov-26 14:34N 38°33' W 010°05'1717.0
2016-Nov-26 13:34N 38°50' W 010°06'1616.4
2016-Nov-26 12:33N 39°07' W 010°07'1716.4
2016-Nov-26 11:33N 39°23' W 010°06'6714.7
2016-Nov-26 07:00N 40°30' W 010°06'51111.5 100 / 48998.610.8 14.310.917.0
2016-Nov-24 10:29N 48°23' W 005°33'1414.9
2016-Nov-24 09:33N 48°34' W 005°21'1514.9
2016-Nov-24 08:33N 48°44' W 005°05'1615.7
2016-Nov-24 07:33N 48°55' W 004°47'6515.8
2016-Nov-24 03:25N 49°38' W 003°32'1314.8
2016-Nov-24 02:33N 49°47' W 003°18'1514.7
2016-Nov-24 01:33N 49°56' W 003°01'1514.9
2016-Nov-24 00:33N 50°01' W 002°39'2116.0
2016-Nov-23 23:14N 50°10' W 002°09'1116.9
2016-Nov-23 22:33N 50°16' W 001°53'1716.5
2016-Nov-23 21:33N 50°24' W 001°30'1716.7
2016-Nov-23 20:33N 50°31' W 001°07'1212.4
2016-Nov-23 19:33N 50°43' W 000°59'1313.2
2016-Nov-23 18:33N 50°48' W 001°19'8 8.0
2016-Nov-23 17:33N 50°54' W 001°26'0 0.1
2016-Nov-23 16:32N 50°54' W 001°26'0 0.0
2016-Nov-23 15:32N 50°54' W 001°26'0 0.0
2016-Nov-23 14:32N 50°54' W 001°26'0 0.0
2016-Nov-23 13:32N 50°54' W 001°26'0 0.0
2016-Nov-23 12:32N 50°54' W 001°26'0 0.0
2016-Nov-23 11:32N 50°54' W 001°26'0 0.0
2016-Nov-23 10:32N 50°54' W 001°26'0 0.0
2016-Nov-23 09:32N 50°54' W 001°26'0 0.0
2016-Nov-23 08:32N 50°54' W 001°26'0 0.0
2016-Nov-23 07:32N 50°54' W 001°26'0 0.0
2016-Nov-23 06:32N 50°54' W 001°26'22 7.5
2016-Nov-23 03:34N 50°40' W 000°59'1313.3
2016-Nov-23 02:33N 50°30' W 001°13'3417.0
2016-Nov-23 00:32N 50°14' W 001°60'1616.4
2016-Nov-22 23:32N 50°01' W 002°16'1615.9
2016-Nov-22 22:32N 49°54' W 002°38'3417.2
2016-Nov-22 20:33N 49°35' W 003°22'5817.6
2016-Nov-22 17:15N 49°01' W 004°35'1318.7
2016-Nov-22 16:33N 48°53' W 004°50'  

Dump ship's entire track history